sensor_id;sensor_type;location;lat;lon;timestamp;pressure;altitude;pressure_sealevel;temperature;humidity
74218;BME280;62579;47.288;18.646;2023-07-29T00:02:18;99420.66;;;20.84;81.22
74218;BME280;62579;47.288;18.646;2023-07-29T00:04:43;99413.06;;;20.84;80.92
74218;BME280;62579;47.288;18.646;2023-07-29T00:07:08;99416.88;;;20.89;81.17
74218;BME280;62579;47.288;18.646;2023-07-29T00:09:33;99415.72;;;20.92;80.68
74218;BME280;62579;47.288;18.646;2023-07-29T00:11:59;99417.00;;;20.81;81.92
74218;BME280;62579;47.288;18.646;2023-07-29T00:14:24;99418.78;;;20.86;81.32
74218;BME280;62579;47.288;18.646;2023-07-29T00:16:49;99425.88;;;20.80;81.54
74218;BME280;62579;47.288;18.646;2023-07-29T00:19:14;99417.56;;;20.80;81.01
74218;BME280;62579;47.288;18.646;2023-07-29T00:21:39;99416.00;;;20.86;80.12
74218;BME280;62579;47.288;18.646;2023-07-29T00:24:06;99427.94;;;20.89;80.12
74218;BME280;62579;47.288;18.646;2023-07-29T00:26:31;99425.88;;;20.80;81.21
74218;BME280;62579;47.288;18.646;2023-07-29T00:28:57;99424.25;;;20.77;80.71
74218;BME280;62579;47.288;18.646;2023-07-29T00:31:22;99434.84;;;20.71;81.71
74218;BME280;62579;47.288;18.646;2023-07-29T00:33:47;99423.09;;;20.70;81.53
74218;BME280;62579;47.288;18.646;2023-07-29T00:36:13;99424.09;;;20.65;82.40
74218;BME280;62579;47.288;18.646;2023-07-29T00:38:38;99427.56;;;20.66;82.33
74218;BME280;62579;47.288;18.646;2023-07-29T00:41:03;99432.09;;;20.71;81.64
74218;BME280;62579;47.288;18.646;2023-07-29T00:43:28;99433.69;;;20.64;81.93
74218;BME280;62579;47.288;18.646;2023-07-29T00:45:54;99432.47;;;20.58;82.47
74218;BME280;62579;47.288;18.646;2023-07-29T00:48:19;99428.78;;;20.46;82.86
74218;BME280;62579;47.288;18.646;2023-07-29T00:50:44;99424.88;;;20.49;82.83
74218;BME280;62579;47.288;18.646;2023-07-29T00:53:10;99423.66;;;20.42;82.92
74218;BME280;62579;47.288;18.646;2023-07-29T00:55:35;99419.56;;;20.33;83.17
74218;BME280;62579;47.288;18.646;2023-07-29T00:58:00;99418.38;;;20.27;83.24
74218;BME280;62579;47.288;18.646;2023-07-29T01:00:25;99425.03;;;20.24;83.75
74218;BME280;62579;47.288;18.646;2023-07-29T01:02:52;99414.72;;;20.24;83.60
74218;BME280;62579;47.288;18.646;2023-07-29T01:05:17;99418.00;;;20.23;83.66
74218;BME280;62579;47.288;18.646;2023-07-29T01:10:18;99420.88;;;20.15;83.08
74218;BME280;62579;47.288;18.646;2023-07-29T01:12:47;99417.62;;;20.09;83.22
74218;BME280;62579;47.288;18.646;2023-07-29T01:15:22;99425.38;;;20.11;82.69
74218;BME280;62579;47.288;18.646;2023-07-29T01:17:50;99420.25;;;20.07;82.60
74218;BME280;62579;47.288;18.646;2023-07-29T01:20:17;99418.72;;;19.97;82.86
74218;BME280;62579;47.288;18.646;2023-07-29T01:22:45;99427.16;;;19.99;83.29
74218;BME280;62579;47.288;18.646;2023-07-29T01:25:10;99425.53;;;19.96;84.18
74218;BME280;62579;47.288;18.646;2023-07-29T01:27:36;99413.53;;;20.01;83.53
74218;BME280;62579;47.288;18.646;2023-07-29T01:30:01;99410.44;;;19.97;83.08
74218;BME280;62579;47.288;18.646;2023-07-29T01:32:29;99417.50;;;19.90;84.26
74218;BME280;62579;47.288;18.646;2023-07-29T01:37:22;99418.50;;;19.85;84.11
74218;BME280;62579;47.288;18.646;2023-07-29T01:39:50;99414.28;;;19.84;84.06
74218;BME280;62579;47.288;18.646;2023-07-29T01:42:18;99420.44;;;19.92;83.46
74218;BME280;62579;47.288;18.646;2023-07-29T01:44:44;99422.66;;;19.76;84.15
74218;BME280;62579;47.288;18.646;2023-07-29T01:47:10;99421.84;;;19.66;83.87
74218;BME280;62579;47.288;18.646;2023-07-29T01:49:35;99414.78;;;19.56;84.12
74218;BME280;62579;47.288;18.646;2023-07-29T01:52:00;99414.22;;;19.40;84.93
74218;BME280;62579;47.288;18.646;2023-07-29T01:54:26;99432.81;;;19.15;85.88
74218;BME280;62579;47.288;18.646;2023-07-29T01:56:51;99419.56;;;18.96;86.59
74218;BME280;62579;47.288;18.646;2023-07-29T01:59:16;99417.22;;;18.93;86.83
74218;BME280;62579;47.288;18.646;2023-07-29T02:01:41;99415.22;;;18.86;87.12
74218;BME280;62579;47.288;18.646;2023-07-29T02:04:07;99408.06;;;18.90;86.92
74218;BME280;62579;47.288;18.646;2023-07-29T02:06:33;99412.59;;;18.95;87.06
74218;BME280;62579;47.288;18.646;2023-07-29T02:08:58;99420.19;;;19.12;85.93
74218;BME280;62579;47.288;18.646;2023-07-29T02:11:23;99418.53;;;19.09;85.89
74218;BME280;62579;47.288;18.646;2023-07-29T02:13:52;99422.19;;;19.11;85.72
74218;BME280;62579;47.288;18.646;2023-07-29T02:16:17;99405.81;;;19.13;85.56
74218;BME280;62579;47.288;18.646;2023-07-29T02:18:43;99414.81;;;19.14;85.66
74218;BME280;62579;47.288;18.646;2023-07-29T02:21:08;99416.69;;;19.11;85.58
74218;BME280;62579;47.288;18.646;2023-07-29T02:23:33;99414.41;;;19.17;85.26
74218;BME280;62579;47.288;18.646;2023-07-29T02:25:58;99417.50;;;19.22;85.25
74218;BME280;62579;47.288;18.646;2023-07-29T02:28:24;99414.75;;;19.22;84.76
74218;BME280;62579;47.288;18.646;2023-07-29T02:30:53;99417.13;;;19.25;84.40
74218;BME280;62579;47.288;18.646;2023-07-29T02:33:33;99410.28;;;19.26;84.56
74218;BME280;62579;47.288;18.646;2023-07-29T02:35:58;99415.97;;;19.28;83.98
74218;BME280;62579;47.288;18.646;2023-07-29T02:38:24;99415.56;;;19.32;83.83
74218;BME280;62579;47.288;18.646;2023-07-29T02:40:49;99417.78;;;19.33;84.15
74218;BME280;62579;47.288;18.646;2023-07-29T02:43:14;99418.75;;;19.28;84.30
74218;BME280;62579;47.288;18.646;2023-07-29T02:45:39;99416.28;;;19.32;83.70
74218;BME280;62579;47.288;18.646;2023-07-29T02:48:04;99417.28;;;19.27;84.10
74218;BME280;62579;47.288;18.646;2023-07-29T02:50:30;99414.00;;;19.21;84.62
74218;BME280;62579;47.288;18.646;2023-07-29T02:52:55;99425.75;;;19.04;85.38
74218;BME280;62579;47.288;18.646;2023-07-29T02:55:20;99435.56;;;18.98;85.93
74218;BME280;62579;47.288;18.646;2023-07-29T02:57:45;99430.19;;;19.00;85.81
74218;BME280;62579;47.288;18.646;2023-07-29T03:00:10;99432.06;;;18.97;85.85
74218;BME280;62579;47.288;18.646;2023-07-29T03:02:36;99431.97;;;18.88;86.54
74218;BME280;62579;47.288;18.646;2023-07-29T03:05:01;99440.62;;;18.84;86.96
74218;BME280;62579;47.288;18.646;2023-07-29T03:07:26;99436.63;;;18.78;87.25
74218;BME280;62579;47.288;18.646;2023-07-29T03:09:51;99432.28;;;18.67;88.15
74218;BME280;62579;47.288;18.646;2023-07-29T03:12:16;99431.22;;;18.63;88.42
74218;BME280;62579;47.288;18.646;2023-07-29T03:14:42;99437.47;;;18.63;88.32
74218;BME280;62579;47.288;18.646;2023-07-29T03:17:07;99436.16;;;18.64;88.16
74218;BME280;62579;47.288;18.646;2023-07-29T03:19:32;99433.75;;;18.68;88.02
74218;BME280;62579;47.288;18.646;2023-07-29T03:21:57;99437.53;;;18.55;89.53
74218;BME280;62579;47.288;18.646;2023-07-29T03:24:22;99430.84;;;18.66;88.49
74218;BME280;62579;47.288;18.646;2023-07-29T03:26:48;99437.63;;;18.65;88.49
74218;BME280;62579;47.288;18.646;2023-07-29T03:29:13;99433.97;;;18.63;88.32
74218;BME280;62579;47.288;18.646;2023-07-29T03:31:38;99443.19;;;18.57;88.46
74218;BME280;62579;47.288;18.646;2023-07-29T03:34:03;99437.91;;;18.52;88.56
74218;BME280;62579;47.288;18.646;2023-07-29T03:36:28;99445.63;;;18.46;88.92
74218;BME280;62579;47.288;18.646;2023-07-29T03:38:54;99442.09;;;18.53;88.84
74218;BME280;62579;47.288;18.646;2023-07-29T03:41:19;99443.75;;;18.56;89.24
74218;BME280;62579;47.288;18.646;2023-07-29T03:43:45;99440.03;;;18.61;88.92
74218;BME280;62579;47.288;18.646;2023-07-29T03:46:10;99446.97;;;18.70;88.73
74218;BME280;62579;47.288;18.646;2023-07-29T03:48:35;99440.28;;;18.80;88.36
74218;BME280;62579;47.288;18.646;2023-07-29T03:51:00;99432.88;;;18.90;87.82
74218;BME280;62579;47.288;18.646;2023-07-29T03:53:26;99437.41;;;18.95;87.78
74218;BME280;62579;47.288;18.646;2023-07-29T03:55:51;99436.63;;;19.02;87.36
74218;BME280;62579;47.288;18.646;2023-07-29T03:58:16;99434.91;;;19.07;87.81
74218;BME280;62579;47.288;18.646;2023-07-29T04:00:41;99438.16;;;19.13;87.91
74218;BME280;62579;47.288;18.646;2023-07-29T04:03:06;99444.19;;;19.19;87.39
74218;BME280;62579;47.288;18.646;2023-07-29T04:05:32;99439.56;;;19.22;86.27
74218;BME280;62579;47.288;18.646;2023-07-29T04:07:57;99445.03;;;19.29;85.56
74218;BME280;62579;47.288;18.646;2023-07-29T04:10:22;99443.88;;;19.32;86.86
74218;BME280;62579;47.288;18.646;2023-07-29T04:12:47;99457.53;;;19.30;87.43
74218;BME280;62579;47.288;18.646;2023-07-29T04:15:13;99452.00;;;19.30;87.22
74218;BME280;62579;47.288;18.646;2023-07-29T04:17:38;99460.84;;;19.29;86.81
74218;BME280;62579;47.288;18.646;2023-07-29T04:20:03;99447.00;;;19.36;86.17
74218;BME280;62579;47.288;18.646;2023-07-29T04:22:29;99448.56;;;19.47;86.90
74218;BME280;62579;47.288;18.646;2023-07-29T04:24:54;99452.69;;;19.55;87.42
74218;BME280;62579;47.288;18.646;2023-07-29T04:27:19;99449.12;;;19.62;86.15
74218;BME280;62579;47.288;18.646;2023-07-29T04:29:45;99450.44;;;19.78;86.41
74218;BME280;62579;47.288;18.646;2023-07-29T04:32:10;99457.66;;;19.91;85.57
74218;BME280;62579;47.288;18.646;2023-07-29T04:34:35;99447.31;;;20.09;86.10
74218;BME280;62579;47.288;18.646;2023-07-29T04:37:00;99446.78;;;20.20;85.01
74218;BME280;62579;47.288;18.646;2023-07-29T04:39:26;99452.50;;;20.22;83.90
74218;BME280;62579;47.288;18.646;2023-07-29T04:41:51;99457.34;;;20.31;83.75
74218;BME280;62579;47.288;18.646;2023-07-29T04:44:16;99447.25;;;20.43;85.06
74218;BME280;62579;47.288;18.646;2023-07-29T04:46:41;99441.50;;;20.58;85.68
74218;BME280;62579;47.288;18.646;2023-07-29T04:49:06;99443.47;;;20.75;85.32
74218;BME280;62579;47.288;18.646;2023-07-29T04:51:32;99440.56;;;20.82;84.04
74218;BME280;62579;47.288;18.646;2023-07-29T04:53:57;99444.28;;;20.94;82.81
74218;BME280;62579;47.288;18.646;2023-07-29T04:56:23;99447.47;;;21.01;82.62
74218;BME280;62579;47.288;18.646;2023-07-29T04:58:48;99448.34;;;21.03;83.02
74218;BME280;62579;47.288;18.646;2023-07-29T05:01:14;99447.19;;;21.06;83.75
74218;BME280;62579;47.288;18.646;2023-07-29T05:03:39;99448.72;;;21.17;83.75
74218;BME280;62579;47.288;18.646;2023-07-29T05:06:05;99459.81;;;21.36;84.30
74218;BME280;62579;47.288;18.646;2023-07-29T05:08:30;99458.25;;;21.62;82.52
74218;BME280;62579;47.288;18.646;2023-07-29T05:10:55;99465.66;;;21.49;82.62
74218;BME280;62579;47.288;18.646;2023-07-29T05:13:21;99474.25;;;21.44;82.95
74218;BME280;62579;47.288;18.646;2023-07-29T05:15:47;99472.69;;;21.50;82.46
74218;BME280;62579;47.288;18.646;2023-07-29T05:18:12;99474.44;;;21.55;82.32
74218;BME280;62579;47.288;18.646;2023-07-29T05:20:37;99472.69;;;21.60;80.63
74218;BME280;62579;47.288;18.646;2023-07-29T05:23:02;99478.25;;;21.70;80.78
74218;BME280;62579;47.288;18.646;2023-07-29T05:25:28;99487.28;;;21.80;79.46
74218;BME280;62579;47.288;18.646;2023-07-29T05:27:54;99486.28;;;21.94;78.11
74218;BME280;62579;47.288;18.646;2023-07-29T05:30:19;99491.41;;;21.88;78.83
74218;BME280;62579;47.288;18.646;2023-07-29T05:32:44;99496.88;;;21.79;78.47
74218;BME280;62579;47.288;18.646;2023-07-29T05:35:09;99500.44;;;21.98;77.95
74218;BME280;62579;47.288;18.646;2023-07-29T05:37:37;99499.25;;;22.11;77.30
74218;BME280;62579;47.288;18.646;2023-07-29T05:40:02;99490.91;;;22.30;76.75
74218;BME280;62579;47.288;18.646;2023-07-29T05:42:28;99498.94;;;22.45;75.18
74218;BME280;62579;47.288;18.646;2023-07-29T05:44:53;99500.81;;;22.43;75.04
74218;BME280;62579;47.288;18.646;2023-07-29T05:47:18;99497.72;;;22.48;74.23
74218;BME280;62579;47.288;18.646;2023-07-29T05:49:43;99491.31;;;22.55;74.12
74218;BME280;62579;47.288;18.646;2023-07-29T05:52:09;99493.66;;;22.49;74.48
74218;BME280;62579;47.288;18.646;2023-07-29T05:54:34;99499.78;;;22.48;75.48
74218;BME280;62579;47.288;18.646;2023-07-29T05:56:59;99498.00;;;22.71;74.67
74218;BME280;62579;47.288;18.646;2023-07-29T05:59:24;99502.22;;;22.72;72.48
74218;BME280;62579;47.288;18.646;2023-07-29T06:01:49;99514.91;;;22.76;70.09
74218;BME280;62579;47.288;18.646;2023-07-29T06:04:15;99519.34;;;23.00;70.67
74218;BME280;62579;47.288;18.646;2023-07-29T06:06:40;99527.69;;;23.00;69.81
74218;BME280;62579;47.288;18.646;2023-07-29T06:09:05;99525.75;;;23.02;69.67
74218;BME280;62579;47.288;18.646;2023-07-29T06:11:30;99521.50;;;23.11;70.02
74218;BME280;62579;47.288;18.646;2023-07-29T06:13:55;99532.03;;;23.03;69.72
74218;BME280;62579;47.288;18.646;2023-07-29T06:16:20;99533.38;;;23.02;69.90
74218;BME280;62579;47.288;18.646;2023-07-29T06:18:46;99534.50;;;23.08;69.61
74218;BME280;62579;47.288;18.646;2023-07-29T06:21:11;99536.72;;;23.00;70.17
74218;BME280;62579;47.288;18.646;2023-07-29T06:23:41;99539.44;;;23.19;68.19
74218;BME280;62579;47.288;18.646;2023-07-29T06:26:06;99534.31;;;23.16;68.64
74218;BME280;62579;47.288;18.646;2023-07-29T06:28:32;99542.28;;;23.41;68.99
74218;BME280;62579;47.288;18.646;2023-07-29T06:30:57;99541.25;;;23.36;67.68
74218;BME280;62579;47.288;18.646;2023-07-29T06:33:22;99545.88;;;23.53;68.08
74218;BME280;62579;47.288;18.646;2023-07-29T06:35:47;99542.38;;;23.52;67.42
74218;BME280;62579;47.288;18.646;2023-07-29T06:38:12;99547.41;;;23.65;67.93
74218;BME280;62579;47.288;18.646;2023-07-29T06:40:38;99547.00;;;23.80;67.59
74218;BME280;62579;47.288;18.646;2023-07-29T06:43:03;99543.69;;;23.72;67.60
74218;BME280;62579;47.288;18.646;2023-07-29T06:45:28;99537.00;;;23.87;67.52
74218;BME280;62579;47.288;18.646;2023-07-29T06:47:53;99542.16;;;23.81;67.39
74218;BME280;62579;47.288;18.646;2023-07-29T06:50:18;99537.78;;;23.99;68.16
74218;BME280;62579;47.288;18.646;2023-07-29T06:52:44;99537.25;;;23.91;68.84
74218;BME280;62579;47.288;18.646;2023-07-29T06:55:09;99527.50;;;24.11;66.96
74218;BME280;62579;47.288;18.646;2023-07-29T06:57:35;99529.94;;;24.17;67.17
74218;BME280;62579;47.288;18.646;2023-07-29T07:00:00;99532.94;;;24.21;67.36
74218;BME280;62579;47.288;18.646;2023-07-29T07:02:25;99536.84;;;24.60;66.98
74218;BME280;62579;47.288;18.646;2023-07-29T07:04:51;99535.63;;;24.75;65.30
74218;BME280;62579;47.288;18.646;2023-07-29T07:07:16;99525.97;;;24.76;65.18
74218;BME280;62579;47.288;18.646;2023-07-29T07:09:41;99524.81;;;24.79;63.43
74218;BME280;62579;47.288;18.646;2023-07-29T07:12:06;99521.91;;;24.88;63.89
74218;BME280;62579;47.288;18.646;2023-07-29T07:14:32;99518.16;;;24.84;63.22
74218;BME280;62579;47.288;18.646;2023-07-29T07:16:57;99518.75;;;24.94;62.02
74218;BME280;62579;47.288;18.646;2023-07-29T07:19:22;99508.69;;;25.12;62.80
74218;BME280;62579;47.288;18.646;2023-07-29T07:21:47;99511.00;;;25.04;61.85
74218;BME280;62579;47.288;18.646;2023-07-29T07:24:13;99515.97;;;25.05;62.14
74218;BME280;62579;47.288;18.646;2023-07-29T07:26:38;99512.56;;;25.19;60.47
74218;BME280;62579;47.288;18.646;2023-07-29T07:29:03;99512.53;;;25.42;60.30
74218;BME280;62579;47.288;18.646;2023-07-29T07:31:32;99502.75;;;25.52;61.18
74218;BME280;62579;47.288;18.646;2023-07-29T07:33:57;99507.47;;;25.50;59.04
74218;BME280;62579;47.288;18.646;2023-07-29T07:36:23;99498.09;;;25.68;58.83
74218;BME280;62579;47.288;18.646;2023-07-29T07:38:48;99502.25;;;25.56;59.76
74218;BME280;62579;47.288;18.646;2023-07-29T07:41:13;99500.09;;;25.91;58.40
74218;BME280;62579;47.288;18.646;2023-07-29T07:43:38;99505.97;;;25.72;58.47
74218;BME280;62579;47.288;18.646;2023-07-29T07:46:04;99508.84;;;25.86;57.43
74218;BME280;62579;47.288;18.646;2023-07-29T07:48:30;99498.41;;;25.86;56.68
74218;BME280;62579;47.288;18.646;2023-07-29T07:50:55;99504.84;;;25.89;56.73
74218;BME280;62579;47.288;18.646;2023-07-29T07:53:20;99506.47;;;26.05;55.60
74218;BME280;62579;47.288;18.646;2023-07-29T07:55:45;99500.75;;;26.15;55.52
74218;BME280;62579;47.288;18.646;2023-07-29T07:58:11;99501.56;;;25.92;56.93
74218;BME280;62579;47.288;18.646;2023-07-29T08:00:36;99502.94;;;26.05;57.12
74218;BME280;62579;47.288;18.646;2023-07-29T08:03:01;99502.59;;;25.99;56.66
74218;BME280;62579;47.288;18.646;2023-07-29T08:05:27;99492.38;;;26.15;55.63
74218;BME280;62579;47.288;18.646;2023-07-29T08:07:52;99498.63;;;26.27;55.60
74218;BME280;62579;47.288;18.646;2023-07-29T08:10:17;99497.31;;;26.42;55.37
74218;BME280;62579;47.288;18.646;2023-07-29T08:12:42;99495.69;;;26.50;54.83
74218;BME280;62579;47.288;18.646;2023-07-29T08:15:08;99492.44;;;26.29;54.44
74218;BME280;62579;47.288;18.646;2023-07-29T08:17:33;99493.50;;;26.35;54.75
74218;BME280;62579;47.288;18.646;2023-07-29T08:19:58;99487.56;;;26.54;54.66
74218;BME280;62579;47.288;18.646;2023-07-29T08:22:23;99483.53;;;26.71;56.76
74218;BME280;62579;47.288;18.646;2023-07-29T08:24:49;99488.53;;;26.72;53.19
74218;BME280;62579;47.288;18.646;2023-07-29T08:27:14;99484.91;;;26.70;52.15
74218;BME280;62579;47.288;18.646;2023-07-29T08:29:39;99494.94;;;26.75;52.15
74218;BME280;62579;47.288;18.646;2023-07-29T08:32:04;99486.66;;;26.77;52.55
74218;BME280;62579;47.288;18.646;2023-07-29T08:34:29;99494.31;;;26.76;54.04
74218;BME280;62579;47.288;18.646;2023-07-29T08:36:54;99494.97;;;26.89;54.57
74218;BME280;62579;47.288;18.646;2023-07-29T08:39:20;99495.59;;;27.01;53.31
74218;BME280;62579;47.288;18.646;2023-07-29T08:41:54;99496.97;;;27.00;53.05
74218;BME280;62579;47.288;18.646;2023-07-29T08:44:22;99489.69;;;27.08;52.24
74218;BME280;62579;47.288;18.646;2023-07-29T08:46:51;99479.66;;;27.17;53.04
74218;BME280;62579;47.288;18.646;2023-07-29T08:49:18;99484.44;;;27.41;51.25
74218;BME280;62579;47.288;18.646;2023-07-29T08:51:44;99482.69;;;27.34;50.55
74218;BME280;62579;47.288;18.646;2023-07-29T08:54:11;99484.53;;;27.43;50.44
74218;BME280;62579;47.288;18.646;2023-07-29T08:56:37;99487.75;;;27.52;49.20
74218;BME280;62579;47.288;18.646;2023-07-29T08:59:02;99477.50;;;27.56;50.96
74218;BME280;62579;47.288;18.646;2023-07-29T09:01:29;99479.50;;;27.40;50.87
74218;BME280;62579;47.288;18.646;2023-07-29T09:03:55;99475.41;;;27.57;50.02
74218;BME280;62579;47.288;18.646;2023-07-29T09:06:20;99473.66;;;27.36;49.34
74218;BME280;62579;47.288;18.646;2023-07-29T09:08:48;99474.97;;;27.62;51.36
74218;BME280;62579;47.288;18.646;2023-07-29T09:11:14;99475.75;;;27.78;50.87
74218;BME280;62579;47.288;18.646;2023-07-29T09:13:42;99474.97;;;28.05;50.35
74218;BME280;62579;47.288;18.646;2023-07-29T09:16:07;99468.03;;;28.06;49.64
74218;BME280;62579;47.288;18.646;2023-07-29T09:18:33;99467.91;;;28.18;49.46
74218;BME280;62579;47.288;18.646;2023-07-29T09:20:59;99462.97;;;28.32;48.44
74218;BME280;62579;47.288;18.646;2023-07-29T09:23:25;99460.03;;;28.30;48.71
74218;BME280;62579;47.288;18.646;2023-07-29T09:25:50;99457.53;;;28.36;48.11
74218;BME280;62579;47.288;18.646;2023-07-29T09:28:25;99459.97;;;28.28;48.38
74218;BME280;62579;47.288;18.646;2023-07-29T09:30:50;99453.84;;;28.47;48.01
74218;BME280;62579;47.288;18.646;2023-07-29T09:33:17;99457.09;;;28.57;45.99
74218;BME280;62579;47.288;18.646;2023-07-29T09:35:42;99451.94;;;28.51;46.84
74218;BME280;62579;47.288;18.646;2023-07-29T09:38:09;99452.00;;;28.38;47.57
74218;BME280;62579;47.288;18.646;2023-07-29T09:40:40;99447.50;;;28.46;47.79
74218;BME280;62579;47.288;18.646;2023-07-29T09:43:05;99447.00;;;28.66;47.05
74218;BME280;62579;47.288;18.646;2023-07-29T09:45:32;99447.81;;;28.68;46.67
74218;BME280;62579;47.288;18.646;2023-07-29T09:47:58;99438.59;;;28.66;46.48
74218;BME280;62579;47.288;18.646;2023-07-29T09:50:24;99441.81;;;28.60;47.28
74218;BME280;62579;47.288;18.646;2023-07-29T09:52:50;99436.78;;;28.88;45.65
74218;BME280;62579;47.288;18.646;2023-07-29T09:55:17;99437.25;;;28.67;45.54
74218;BME280;62579;47.288;18.646;2023-07-29T09:57:42;99437.66;;;28.92;46.46
74218;BME280;62579;47.288;18.646;2023-07-29T10:00:10;99445.66;;;28.67;45.28
74218;BME280;62579;47.288;18.646;2023-07-29T10:02:37;99437.94;;;28.98;44.78
74218;BME280;62579;47.288;18.646;2023-07-29T10:05:02;99439.47;;;29.01;44.30
74218;BME280;62579;47.288;18.646;2023-07-29T10:07:28;99426.12;;;28.84;42.86
74218;BME280;62579;47.288;18.646;2023-07-29T10:09:54;99442.38;;;28.88;45.10
74218;BME280;62579;47.288;18.646;2023-07-29T10:12:21;99431.06;;;29.01;43.56
74218;BME280;62579;47.288;18.646;2023-07-29T10:14:46;99430.59;;;29.07;44.03
74218;BME280;62579;47.288;18.646;2023-07-29T10:17:13;99426.84;;;29.18;44.00
74218;BME280;62579;47.288;18.646;2023-07-29T10:19:40;99429.41;;;29.12;44.64
74218;BME280;62579;47.288;18.646;2023-07-29T10:22:07;99418.72;;;29.24;43.92
74218;BME280;62579;47.288;18.646;2023-07-29T10:24:33;99422.59;;;29.50;43.61
74218;BME280;62579;47.288;18.646;2023-07-29T10:26:59;99416.59;;;29.40;44.55
74218;BME280;62579;47.288;18.646;2023-07-29T10:29:25;99417.00;;;29.50;42.98
74218;BME280;62579;47.288;18.646;2023-07-29T10:31:53;99410.50;;;29.28;42.82
74218;BME280;62579;47.288;18.646;2023-07-29T10:34:20;99414.69;;;29.45;43.89
74218;BME280;62579;47.288;18.646;2023-07-29T10:36:46;99418.38;;;29.67;44.60
74218;BME280;62579;47.288;18.646;2023-07-29T10:39:12;99413.16;;;29.59;43.32
74218;BME280;62579;47.288;18.646;2023-07-29T10:47:14;99413.00;;;29.91;43.89
74218;BME280;62579;47.288;18.646;2023-07-29T10:49:40;99411.34;;;29.84;41.98
74218;BME280;62579;47.288;18.646;2023-07-29T10:52:06;99401.94;;;29.59;43.35
74218;BME280;62579;47.288;18.646;2023-07-29T10:54:32;99406.13;;;29.76;43.44
74218;BME280;62579;47.288;18.646;2023-07-29T10:57:06;99405.16;;;29.52;42.95
74218;BME280;62579;47.288;18.646;2023-07-29T10:59:32;99404.03;;;29.76;43.97
74218;BME280;62579;47.288;18.646;2023-07-29T11:01:58;99403.47;;;29.98;44.75
74218;BME280;62579;47.288;18.646;2023-07-29T11:04:25;99411.47;;;30.05;44.35
74218;BME280;62579;47.288;18.646;2023-07-29T11:14:56;99402.28;;;30.40;41.42
74218;BME280;62579;47.288;18.646;2023-07-29T11:17:21;99401.72;;;30.44;41.20
74218;BME280;62579;47.288;18.646;2023-07-29T11:19:47;99395.50;;;30.47;40.75
74218;BME280;62579;47.288;18.646;2023-07-29T11:22:13;99400.03;;;30.37;41.33
74218;BME280;62579;47.288;18.646;2023-07-29T11:24:41;99401.72;;;30.26;40.76
74218;BME280;62579;47.288;18.646;2023-07-29T11:27:06;99398.91;;;30.06;40.51
74218;BME280;62579;47.288;18.646;2023-07-29T11:29:36;99399.16;;;29.95;41.54
74218;BME280;62579;47.288;18.646;2023-07-29T11:32:01;99395.97;;;30.22;40.71
74218;BME280;62579;47.288;18.646;2023-07-29T11:34:33;99398.03;;;30.39;41.25
74218;BME280;62579;47.288;18.646;2023-07-29T11:36:58;99392.72;;;30.67;40.90
74218;BME280;62579;47.288;18.646;2023-07-29T11:39:23;99384.72;;;30.99;41.89
74218;BME280;62579;47.288;18.646;2023-07-29T11:41:49;99395.66;;;30.90;39.83
74218;BME280;62579;47.288;18.646;2023-07-29T11:44:17;99395.25;;;30.98;40.83
74218;BME280;62579;47.288;18.646;2023-07-29T11:46:43;99387.62;;;31.22;40.08
74218;BME280;62579;47.288;18.646;2023-07-29T11:49:08;99386.19;;;30.60;38.89
74218;BME280;62579;47.288;18.646;2023-07-29T11:51:33;99381.56;;;30.49;39.79
74218;BME280;62579;47.288;18.646;2023-07-29T11:53:58;99379.03;;;30.57;39.96
74218;BME280;62579;47.288;18.646;2023-07-29T11:56:24;99377.09;;;30.81;39.41
74218;BME280;62579;47.288;18.646;2023-07-29T11:58:50;99368.25;;;30.91;40.71
74218;BME280;62579;47.288;18.646;2023-07-29T12:01:15;99368.56;;;30.79;41.75
74218;BME280;62579;47.288;18.646;2023-07-29T12:03:40;99374.28;;;30.81;41.26
74218;BME280;62579;47.288;18.646;2023-07-29T12:06:06;99369.94;;;30.78;40.82
74218;BME280;62579;47.288;18.646;2023-07-29T12:08:31;99364.25;;;30.96;37.97
74218;BME280;62579;47.288;18.646;2023-07-29T12:10:57;99367.78;;;30.77;38.42
74218;BME280;62579;47.288;18.646;2023-07-29T12:13:25;99364.91;;;30.75;36.71
74218;BME280;62579;47.288;18.646;2023-07-29T12:15:50;99361.13;;;30.88;37.59
74218;BME280;62579;47.288;18.646;2023-07-29T12:18:15;99358.38;;;31.10;37.64
74218;BME280;62579;47.288;18.646;2023-07-29T12:20:41;99361.25;;;31.12;37.46
74218;BME280;62579;47.288;18.646;2023-07-29T12:23:06;99363.16;;;31.05;38.20
74218;BME280;62579;47.288;18.646;2023-07-29T12:25:32;99357.69;;;30.89;38.07
74218;BME280;62579;47.288;18.646;2023-07-29T12:28:16;99357.78;;;30.72;38.28
74218;BME280;62579;47.288;18.646;2023-07-29T12:30:41;99358.13;;;30.82;38.29
74218;BME280;62579;47.288;18.646;2023-07-29T12:33:07;99354.97;;;30.72;38.41
74218;BME280;62579;47.288;18.646;2023-07-29T12:35:35;99350.41;;;30.82;38.81
74218;BME280;62579;47.288;18.646;2023-07-29T12:38:01;99358.44;;;31.12;39.62
74218;BME280;62579;47.288;18.646;2023-07-29T12:40:26;99345.00;;;31.30;39.02
74218;BME280;62579;47.288;18.646;2023-07-29T12:42:52;99351.47;;;31.34;39.20
74218;BME280;62579;47.288;18.646;2023-07-29T12:45:18;99349.62;;;31.21;39.09
74218;BME280;62579;47.288;18.646;2023-07-29T12:47:43;99351.59;;;31.17;38.95
74218;BME280;62579;47.288;18.646;2023-07-29T12:50:09;99347.97;;;31.36;39.31
74218;BME280;62579;47.288;18.646;2023-07-29T12:52:34;99353.59;;;31.36;39.51
74218;BME280;62579;47.288;18.646;2023-07-29T12:54:59;99339.63;;;31.38;38.91
74218;BME280;62579;47.288;18.646;2023-07-29T12:57:24;99345.59;;;31.48;38.86
74218;BME280;62579;47.288;18.646;2023-07-29T12:59:49;99336.81;;;31.60;40.87
74218;BME280;62579;47.288;18.646;2023-07-29T13:02:15;99344.59;;;31.85;39.64